Time;durP1;ratioP1;P1;durP2;ratioP2;P2;SDS_P1;SDS_P2;PMS_P1;PMS_P2;Temp;Humidity;BMP_temperature;BMP_pressure;BME280_temperature;BME280_humidity;BME280_pressure;Samples;Min_cycle;Max_cycle;Signal;HPM_P1;HPM_P2
2024/02/17 00:01:08;;;;;;;28.55;8.77;;;;;;;9.78;100.00;101364.53;4988008;28;20527;-61
2024/02/17 00:03:36;;;;;;;22.45;10.13;;;;;;;9.76;100.00;101366.81;4988899;28;20416;-62
2024/02/17 00:06:04;;;;;;;30.67;13.98;;;;;;;9.75;100.00;101362.41;4988090;28;20046;-59
2024/02/17 00:08:31;;;;;;;34.88;12.70;;;;;;;9.72;100.00;101365.81;4993135;28;20042;-60
2024/02/17 00:10:59;;;;;;;35.65;11.35;;;;;;;9.72;100.00;101357.53;4986328;28;20133;-61
2024/02/17 00:13:26;;;;;;;25.95;8.93;;;;;;;9.71;100.00;101366.97;4981461;28;20046;-59
2024/02/17 00:15:53;;;;;;;25.23;8.98;;;;;;;9.71;100.00;101373.31;4986508;28;20042;-60
2024/02/17 00:18:28;;;;;;;30.52;9.95;;;;;;;9.72;100.00;101363.06;4987045;28;20050;-61
2024/02/17 00:21:03;;;;;;;22.63;10.30;;;;;;;9.72;100.00;101374.13;4954574;28;20051;-60
2024/02/17 00:23:31;;;;;;;34.45;12.05;;;;;;;9.73;100.00;101378.50;4988852;28;20054;-61
2024/02/17 00:25:58;;;;;;;27.90;12.43;;;;;;;9.73;100.00;101375.75;4989655;28;20066;-60
2024/02/17 00:28:26;;;;;;;36.42;10.85;;;;;;;9.74;100.00;101369.88;4988779;28;20521;-61
2024/02/17 00:30:54;;;;;;;27.55;10.18;;;;;;;9.74;100.00;101377.38;4988672;28;20448;-61
2024/02/17 00:33:21;;;;;;;22.85;9.80;;;;;;;9.73;100.00;101375.75;4988420;28;20057;-61
2024/02/17 00:35:51;;;;;;;25.58;10.57;;;;;;;9.73;100.00;101364.69;4988370;28;20674;-60
2024/02/17 00:38:19;;;;;;;28.02;9.77;;;;;;;9.72;100.00;101363.88;4987733;28;20540;-60
2024/02/17 00:40:46;;;;;;;29.40;10.23;;;;;;;9.71;100.00;101367.78;4988799;28;20073;-60
2024/02/17 00:43:15;;;;;;;29.85;10.25;;;;;;;9.70;100.00;101370.88;4988511;28;20530;-60
2024/02/17 00:45:43;;;;;;;24.05;9.68;;;;;;;9.69;100.00;101374.75;4989138;28;20081;-60
2024/02/17 00:48:11;;;;;;;32.88;9.55;;;;;;;9.68;100.00;101364.84;4987969;28;20058;-60
2024/02/17 00:50:38;;;;;;;28.48;10.20;;;;;;;9.66;100.00;101361.59;4988038;28;20069;-60
2024/02/17 00:53:06;;;;;;;29.38;11.10;;;;;;;9.66;100.00;101369.91;4976048;28;20061;-61
2024/02/17 00:55:34;;;;;;;35.65;9.68;;;;;;;9.62;100.00;101366.97;4982615;28;20397;-60
2024/02/17 00:58:02;;;;;;;28.08;10.10;;;;;;;9.57;100.00;101369.88;4988552;28;20054;-60
2024/02/17 01:00:30;;;;;;;23.85;8.70;;;;;;;9.52;100.00;101372.81;4987877;28;20054;-60
2024/02/17 01:02:57;;;;;;;26.48;9.55;;;;;;;9.48;100.00;101351.63;4987914;28;20054;-60
2024/02/17 01:05:25;;;;;;;24.38;11.20;;;;;;;9.44;100.00;101359.78;4987900;28;20069;-60
2024/02/17 01:07:52;;;;;;;23.30;11.88;;;;;;;9.42;100.00;101364.00;4987923;28;20463;-60
2024/02/17 01:10:19;;;;;;;33.60;13.65;;;;;;;9.39;100.00;101364.66;4984664;28;20059;-61
2024/02/17 01:12:47;;;;;;;31.05;14.43;;;;;;;9.33;100.00;101361.22;4988261;28;20044;-60
2024/02/17 01:15:14;;;;;;;34.28;13.73;;;;;;;9.27;100.00;101353.38;4988089;28;20054;-60
2024/02/17 01:17:42;;;;;;;28.73;13.55;;;;;;;9.21;100.00;101354.69;4981534;28;20047;-60
2024/02/17 01:20:10;;;;;;;29.27;13.20;;;;;;;9.08;100.00;101346.19;4983943;28;20042;-60
2024/02/17 01:22:37;;;;;;;40.75;15.30;;;;;;;8.98;100.00;101354.78;4970425;28;20047;-60
2024/02/17 01:25:05;;;;;;;31.52;12.05;;;;;;;8.92;100.00;101345.00;4987802;28;20057;-60
2024/02/17 01:27:32;;;;;;;26.33;12.02;;;;;;;8.87;100.00;101353.44;4987950;28;20050;-60
2024/02/17 01:30:00;;;;;;;39.83;13.43;;;;;;;8.81;100.00;101351.16;4987587;28;20073;-61
2024/02/17 01:32:27;;;;;;;38.97;15.43;;;;;;;8.78;100.00;101354.53;4987943;28;20051;-60
2024/02/17 01:34:54;;;;;;;37.35;14.27;;;;;;;8.74;100.00;101359.88;4970354;28;20447;-60
2024/02/17 01:37:22;;;;;;;37.13;13.07;;;;;;;8.70;100.00;101358.91;4987831;28;20690;-60
2024/02/17 01:39:49;;;;;;;46.83;16.67;;;;;;;8.65;100.00;101366.50;4987494;28;20727;-60
2024/02/17 01:42:17;;;;;;;51.83;15.57;;;;;;;8.62;100.00;101362.44;4987381;28;20524;-61
2024/02/17 01:44:44;;;;;;;39.75;13.27;;;;;;;8.58;100.00;101367.75;4986959;28;20042;-60
2024/02/17 01:47:12;;;;;;;32.42;12.25;;;;;;;8.54;100.00;101377.00;4979449;28;20504;-61
2024/02/17 01:49:39;;;;;;;32.38;12.93;;;;;;;8.50;100.00;101365.75;5000996;28;20042;-60
2024/02/17 01:52:08;;;;;;;34.78;12.15;;;;;;;8.43;100.00;101370.09;4987119;28;20050;-60
2024/02/17 01:54:36;;;;;;;38.25;13.48;;;;;;;8.41;100.00;101372.38;4987338;28;20061;-61
2024/02/17 01:57:05;;;;;;;38.85;13.23;;;;;;;8.39;100.00;101366.38;4986926;28;20061;-60
2024/02/17 01:59:33;;;;;;;40.78;12.25;;;;;;;8.37;100.00;101376.88;4986640;28;20046;-60
2024/02/17 02:02:01;;;;;;;35.58;12.25;;;;;;;8.36;100.00;101372.50;4987354;28;20413;-61
2024/02/17 02:04:30;;;;;;;28.00;12.05;;;;;;;8.34;100.00;101366.50;4974361;28;20054;-61
2024/02/17 02:06:57;;;;;;;34.08;11.73;;;;;;;8.33;100.00;101367.63;4986369;28;20053;-61
2024/02/17 02:09:25;;;;;;;30.85;10.65;;;;;;;8.29;100.00;101383.16;4986822;28;20042;-61
2024/02/17 02:11:53;;;;;;;27.85;11.48;;;;;;;8.27;100.00;101377.13;4969830;28;20047;-60
2024/02/17 02:14:24;;;;;;;28.25;11.43;;;;;;;8.27;100.00;101388.16;4987040;28;20046;-61
2024/02/17 02:16:51;;;;;;;39.47;11.30;;;;;;;8.27;100.00;101390.94;4986114;28;20868;-61
2024/02/17 02:19:18;;;;;;;30.77;10.98;;;;;;;8.29;100.00;101388.66;4986145;28;20050;-61
2024/02/17 02:21:47;;;;;;;32.28;11.52;;;;;;;8.30;100.00;101384.78;4987248;28;20054;-61
2024/02/17 02:24:14;;;;;;;26.65;11.20;;;;;;;8.34;100.00;101377.53;4986439;28;20058;-60
2024/02/17 02:26:42;;;;;;;32.28;11.45;;;;;;;8.35;100.00;101373.63;4983355;28;20048;-60
2024/02/17 02:29:09;;;;;;;31.77;11.75;;;;;;;8.38;100.00;101381.28;4986836;28;20046;-61
2024/02/17 02:31:37;;;;;;;22.67;9.38;;;;;;;8.40;100.00;101376.25;4987069;28;20053;-60
2024/02/17 02:34:04;;;;;;;31.50;11.15;;;;;;;8.43;100.00;101381.13;4986407;28;20057;-60
2024/02/17 02:36:31;;;;;;;30.88;11.20;;;;;;;8.41;100.00;101372.38;4986440;28;20050;-61
2024/02/17 02:38:59;;;;;;;24.58;10.57;;;;;;;8.36;100.00;101373.31;4986630;28;20054;-62
2024/02/17 02:41:26;;;;;;;24.50;10.30;;;;;;;8.32;100.00;101371.50;4985917;28;20050;-61
2024/02/17 02:43:53;;;;;;;30.85;12.50;;;;;;;8.28;100.00;101370.50;4987129;28;20042;-60
2024/02/17 02:46:21;;;;;;;25.90;9.65;;;;;;;8.20;100.00;101372.06;4986004;28;20046;-61
2024/02/17 02:48:48;;;;;;;28.75;10.95;;;;;;;8.11;100.00;101376.69;4987065;28;20493;-61
2024/02/17 02:51:17;;;;;;;24.50;10.20;;;;;;;8.06;100.00;101376.81;4968536;28;20060;-61
2024/02/17 02:53:44;;;;;;;26.20;10.77;;;;;;;7.98;100.00;101367.34;4986639;28;20051;-61
2024/02/17 02:56:12;;;;;;;25.35;9.82;;;;;;;7.93;100.00;101372.16;4986078;28;20042;-61
2024/02/17 02:58:39;;;;;;;24.25;9.50;;;;;;;7.88;100.00;101369.53;4986110;28;20054;-60
2024/02/17 03:01:06;;;;;;;25.45;9.63;;;;;;;7.83;100.00;101366.91;4996112;23;20050;-61
2024/02/17 03:03:34;;;;;;;24.75;10.02;;;;;;;7.76;100.00;101372.00;4999252;28;20050;-60
2024/02/17 03:06:01;;;;;;;26.05;10.23;;;;;;;7.74;100.00;101388.88;4992632;28;20054;-60
2024/02/17 03:08:29;;;;;;;23.38;10.38;;;;;;;7.71;100.00;101380.38;5004541;28;20065;-60
2024/02/17 03:10:56;;;;;;;26.65;9.57;;;;;;;7.68;100.00;101381.81;5006458;28;20038;-60
2024/02/17 03:13:24;;;;;;;17.95;8.35;;;;;;;7.62;100.00;101382.28;5006088;28;20042;-60
2024/02/17 03:15:51;;;;;;;18.85;8.20;;;;;;;7.58;100.00;101390.31;5005839;28;20057;-60
2024/02/17 03:18:19;;;;;;;26.98;10.75;;;;;;;7.54;100.00;101383.81;5005716;28;20852;-60
2024/02/17 03:20:46;;;;;;;19.42;8.73;;;;;;;7.54;100.00;101375.56;5005974;28;20052;-61
2024/02/17 03:23:14;;;;;;;21.45;9.40;;;;;;;7.54;100.00;101381.06;5005525;28;20495;-60
2024/02/17 03:25:42;;;;;;;19.63;8.23;;;;;;;7.52;100.00;101377.78;5006110;28;20050;-60
2024/02/17 03:28:09;;;;;;;21.48;9.20;;;;;;;7.49;100.00;101372.09;5006235;28;20575;-61
2024/02/17 03:30:36;;;;;;;20.55;7.55;;;;;;;7.45;100.00;101371.06;5008685;28;20563;-60
2024/02/17 03:33:04;;;;;;;15.43;7.15;;;;;;;7.42;100.00;101372.50;5009885;28;20393;-60
2024/02/17 03:35:32;;;;;;;18.65;7.40;;;;;;;7.37;100.00;101369.84;5008656;28;20056;-61
2024/02/17 03:37:59;;;;;;;17.13;8.13;;;;;;;7.34;100.00;101360.28;5008919;28;20699;-60
2024/02/17 03:40:27;;;;;;;17.58;7.55;;;;;;;7.32;100.00;101361.72;5009310;28;20057;-60
2024/02/17 03:42:54;;;;;;;17.52;7.68;;;;;;;7.25;100.00;101372.34;4991004;28;20423;-60
2024/02/17 03:45:21;;;;;;;17.73;9.80;;;;;;;7.23;100.00;101374.56;4999356;28;20132;-60
2024/02/17 03:47:49;;;;;;;17.42;7.88;;;;;;;7.24;100.00;101381.72;5008868;28;20046;-60
2024/02/17 03:50:16;;;;;;;15.07;8.35;;;;;;;7.23;100.00;101360.78;5008946;28;20058;-60
2024/02/17 03:52:44;;;;;;;22.92;8.40;;;;;;;7.22;100.00;101361.94;5009036;28;20053;-60
2024/02/17 03:55:11;;;;;;;14.98;7.90;;;;;;;7.21;100.00;101352.03;5009129;28;20050;-62
2024/02/17 03:57:39;;;;;;;13.27;7.65;;;;;;;7.20;100.00;101353.97;5008614;28;20514;-60
2024/02/17 04:00:07;;;;;;;16.00;7.50;;;;;;;7.17;100.00;101353.78;4991141;28;20800;-61
2024/02/17 04:02:35;;;;;;;19.05;8.73;;;;;;;7.16;100.00;101341.94;5008926;28;20050;-60
2024/02/17 04:05:03;;;;;;;22.25;8.73;;;;;;;7.14;100.00;101330.44;5008914;28;20068;-60
2024/02/17 04:07:30;;;;;;;18.23;10.10;;;;;;;7.13;100.00;101341.72;5007999;28;20586;-60
2024/02/17 04:09:58;;;;;;;15.50;8.48;;;;;;;7.15;100.00;101339.47;4991245;28;20522;-60
2024/02/17 04:12:25;;;;;;;17.13;8.20;;;;;;;7.14;100.00;101330.44;5008260;28;20053;-60
2024/02/17 04:14:53;;;;;;;19.17;7.93;;;;;;;7.18;100.00;101325.09;5008735;28;20687;-60
2024/02/17 04:17:20;;;;;;;24.38;9.07;;;;;;;7.20;100.00;101314.63;5008650;28;20042;-61
2024/02/17 04:19:47;;;;;;;25.45;10.63;;;;;;;7.23;100.00;101303.78;5008222;28;20057;-60
2024/02/17 04:22:16;;;;;;;22.75;10.93;;;;;;;7.31;100.00;101305.81;5008211;28;20058;-59
2024/02/17 04:24:43;;;;;;;32.95;13.48;;;;;;;7.40;100.00;101311.41;5008185;28;20049;-60
2024/02/17 04:27:11;;;;;;;31.48;13.15;;;;;;;7.44;100.00;101317.91;5008292;28;20054;-60
2024/02/17 04:29:38;;;;;;;45.13;16.95;;;;;;;7.46;100.00;101317.59;5008384;28;20727;-60
2024/02/17 04:32:05;;;;;;;26.65;11.38;;;;;;;7.49;100.00;101322.50;5007150;28;20427;-60
2024/02/17 04:34:33;;;;;;;24.73;11.32;;;;;;;7.46;100.00;101321.19;4990431;28;20042;-60
2024/02/17 04:37:03;;;;;;;29.65;11.65;;;;;;;7.46;100.00;101318.44;5008243;28;20042;-60
2024/02/17 04:39:30;;;;;;;27.70;11.93;;;;;;;7.48;100.00;101326.38;5008007;28;20499;-60
2024/02/17 04:41:58;;;;;;;27.67;11.68;;;;;;;7.49;100.00;101328.00;5007407;28;20864;-60
2024/02/17 04:44:25;;;;;;;29.77;10.60;;;;;;;7.47;100.00;101330.25;5007674;28;20046;-60
2024/02/17 04:46:52;;;;;;;30.30;12.50;;;;;;;7.44;100.00;101337.19;5008216;28;20065;-59
2024/02/17 04:49:20;;;;;;;23.20;10.02;;;;;;;7.39;100.00;101344.78;5007832;28;20054;-60
2024/02/17 04:51:47;;;;;;;26.38;11.02;;;;;;;7.39;100.00;101355.78;5010452;28;20076;-60
2024/02/17 04:54:16;;;;;;;21.80;10.30;;;;;;;7.34;100.00;101364.97;5007897;28;20068;-60
2024/02/17 04:56:43;;;;;;;30.25;12.00;;;;;;;7.36;100.00;101365.47;5007478;28;20058;-60
2024/02/17 04:59:11;;;;;;;25.73;10.70;;;;;;;7.34;100.00;101360.28;5007543;28;20061;-60
2024/02/17 05:01:38;;;;;;;25.33;11.13;;;;;;;7.35;100.00;101372.94;5007941;28;20054;-60
2024/02/17 05:04:05;;;;;;;27.70;11.60;;;;;;;7.35;100.00;101366.59;5007777;28;20618;-60
2024/02/17 05:06:33;;;;;;;18.08;9.80;;;;;;;7.37;100.00;101375.38;5007639;28;20053;-60
2024/02/17 05:09:01;;;;;;;20.85;10.68;;;;;;;7.34;100.00;101379.56;5005897;28;20054;-59
2024/02/17 05:11:29;;;;;;;26.20;11.50;;;;;;;7.34;100.00;101382.31;5007596;28;20056;-60
2024/02/17 05:13:56;;;;;;;22.75;10.70;;;;;;;7.32;100.00;101392.00;5007605;28;20049;-60
2024/02/17 05:16:23;;;;;;;21.95;9.85;;;;;;;7.31;100.00;101406.88;5007752;28;20057;-60
2024/02/17 05:18:50;;;;;;;18.05;9.02;;;;;;;7.30;100.00;101402.53;4989721;28;20749;-60
2024/02/17 05:21:18;;;;;;;23.70;9.82;;;;;;;7.26;100.00;101404.25;5007109;28;20064;-60
2024/02/17 05:23:46;;;;;;;18.73;10.00;;;;;;;7.24;100.00;101403.75;5007345;28;20056;-60
2024/02/17 05:26:13;;;;;;;17.02;8.23;;;;;;;7.21;100.00;101407.09;5007545;28;20049;-60
2024/02/17 05:28:40;;;;;;;24.80;9.85;;;;;;;7.22;100.00;101401.31;5006902;28;20054;-59
2024/02/17 05:31:24;;;;;;;18.25;9.05;;;;;;;7.21;100.00;101404.34;4989772;28;20053;-60
2024/02/17 05:33:52;;;;;;;20.63;9.25;;;;;;;7.21;100.00;101398.84;5007126;28;20400;-59
2024/02/17 05:36:20;;;;;;;19.73;8.60;;;;;;;7.24;100.00;101384.47;5006510;28;20046;-60
2024/02/17 05:38:47;;;;;;;18.13;9.27;;;;;;;7.26;100.00;101379.47;5007008;28;20076;-60
2024/02/17 05:41:16;;;;;;;20.38;10.05;;;;;;;7.27;100.00;101373.66;5006735;28;20061;-60
2024/02/17 05:43:43;;;;;;;19.08;8.77;;;;;;;7.30;100.00;101364.78;4989811;28;20046;-60
2024/02/17 05:46:11;;;;;;;20.38;9.75;;;;;;;7.32;100.00;101373.53;5006626;28;20053;-60
2024/02/17 05:48:38;;;;;;;17.67;9.23;;;;;;;7.35;100.00;101385.88;5006598;28;20057;-60
2024/02/17 05:51:06;;;;;;;22.92;10.52;;;;;;;7.32;100.00;101384.56;5006410;28;20049;-61
2024/02/17 05:53:33;;;;;;;24.40;9.98;;;;;;;7.32;100.00;101372.72;5006617;28;20054;-60
2024/02/17 05:56:00;;;;;;;21.85;10.57;;;;;;;7.32;100.00;101381.00;5006912;28;20069;-59
2024/02/17 05:58:28;;;;;;;20.17;9.13;;;;;;;7.29;100.00;101373.34;5006844;28;20065;-60
2024/02/17 06:00:59;;;;;;;16.60;8.30;;;;;;;7.25;100.00;101370.38;5007211;28;21128;-60
2024/02/17 06:03:27;;;;;;;20.93;8.53;;;;;;;7.21;100.00;101376.81;5006285;28;20050;-60
2024/02/17 06:05:54;;;;;;;19.75;10.30;;;;;;;7.14;100.00;101377.25;5010073;28;20463;-60
2024/02/17 06:08:22;;;;;;;22.08;9.82;;;;;;;7.16;100.00;101393.44;4989028;28;20061;-60
2024/02/17 06:10:49;;;;;;;22.55;9.95;;;;;;;7.17;100.00;101389.56;5006808;28;20518;-59
2024/02/17 06:13:17;;;;;;;19.05;8.65;;;;;;;7.14;100.00;101387.44;5006810;28;20637;-59
2024/02/17 06:15:44;;;;;;;15.80;7.93;;;;;;;7.09;100.00;101399.38;5007055;28;20407;-59
2024/02/17 06:21:10;;;;;;;22.02;10.13;;;;;;;7.08;100.00;101375.69;4996081;28;20061;-59
2024/02/17 06:23:45;;;;;;;23.17;9.95;;;;;;;7.09;100.00;101362.75;5006465;28;20073;-60
2024/02/17 06:26:24;;;;;;;17.40;9.68;;;;;;;7.10;100.00;101367.13;5006878;28;20073;-59
2024/02/17 06:28:52;;;;;;;19.85;9.68;;;;;;;7.10;100.00;101348.66;4994627;28;20038;-59
2024/02/17 06:31:20;;;;;;;19.83;9.75;;;;;;;7.07;100.00;101354.78;5005702;28;20049;-59
2024/02/17 06:33:50;;;;;;;19.17;8.45;;;;;;;7.05;100.00;101350.72;5007003;28;20050;-59
2024/02/17 06:36:18;;;;;;;18.05;9.30;;;;;;;7.07;100.00;101354.00;5006377;28;20057;-58
2024/02/17 06:38:50;;;;;;;18.98;10.60;;;;;;;7.09;100.00;101360.00;4989041;28;20052;-60
2024/02/17 06:41:19;;;;;;;22.48;9.98;;;;;;;7.10;100.00;101358.88;5006810;28;20049;-59
2024/02/17 06:43:48;;;;;;;14.38;8.65;;;;;;;7.09;100.00;101362.75;5006610;28;20489;-59
2024/02/17 06:46:16;;;;;;;17.80;8.25;;;;;;;7.14;100.00;101368.16;5005841;28;20050;-60
2024/02/17 06:48:44;;;;;;;17.98;9.05;;;;;;;7.16;100.00;101371.41;5006179;28;20060;-59
2024/02/17 06:51:11;;;;;;;15.63;7.50;;;;;;;7.17;100.00;101373.06;4987862;28;20045;-60
2024/02/17 06:53:39;;;;;;;18.15;9.07;;;;;;;7.17;100.00;101364.78;5006499;28;20049;-59
2024/02/17 06:56:06;;;;;;;11.40;6.90;;;;;;;7.20;100.00;101361.44;5006027;28;20068;-61
2024/02/17 06:58:33;;;;;;;17.55;8.70;;;;;;;7.20;100.00;101348.44;5006472;28;20054;-59
2024/02/17 07:01:01;;;;;;;11.75;6.70;;;;;;;7.22;100.00;101345.41;5005785;28;20080;-59
2024/02/17 07:03:28;;;;;;;17.40;7.93;;;;;;;7.22;100.00;101351.75;5006083;28;20502;-59
2024/02/17 07:05:56;;;;;;;10.73;6.03;;;;;;;7.20;100.00;101353.16;5009828;28;20057;-59
2024/02/17 07:08:23;;;;;;;29.88;16.38;;;;;;;7.18;100.00;101336.13;5010326;28;20058;-58
2024/02/17 07:10:51;;;;;;;23.15;12.15;;;;;;;7.16;100.00;101357.66;5009313;28;20046;-60
2024/02/17 07:13:18;;;;;;;29.70;15.25;;;;;;;7.14;100.00;101344.19;5009678;28;20056;-58
2024/02/17 07:15:46;;;;;;;19.55;9.55;;;;;;;7.15;100.00;101347.75;5009497;28;20727;-59
2024/02/17 07:18:14;;;;;;;22.85;8.93;;;;;;;7.13;100.00;101350.00;5010380;28;20044;-58
2024/02/17 07:20:43;;;;;;;18.45;7.53;;;;;;;7.15;100.00;101350.50;4996786;28;20061;-59
2024/02/17 07:23:13;;;;;;;17.50;8.13;;;;;;;7.15;100.00;101351.31;5009764;28;20046;-59
2024/02/17 07:25:44;;;;;;;14.23;7.20;;;;;;;7.15;100.00;101372.53;5008897;28;20057;-58
2024/02/17 07:28:12;;;;;;;16.30;7.53;;;;;;;7.14;100.00;101376.41;5009579;28;20062;-59
2024/02/17 07:30:41;;;;;;;16.00;6.80;;;;;;;7.13;100.00;101361.00;5009658;28;20065;-59
2024/02/17 07:33:10;;;;;;;11.85;6.43;;;;;;;7.18;100.00;101377.41;5008674;28;20065;-59
2024/02/17 07:35:42;;;;;;;17.00;7.53;;;;;;;7.22;100.00;101381.22;4992132;28;20130;-60
2024/02/17 07:38:10;;;;;;;17.40;7.75;;;;;;;7.25;100.00;101386.09;5009065;28;20049;-58
2024/02/17 07:40:38;;;;;;;24.52;10.00;;;;;;;7.29;100.00;101393.44;5009335;28;20053;-59
2024/02/17 07:43:06;;;;;;;32.85;14.60;;;;;;;7.31;100.00;101382.09;5009059;28;20377;-60
2024/02/17 07:45:34;;;;;;;35.33;15.30;;;;;;;7.32;100.00;101394.75;5009541;28;20047;-58
2024/02/17 07:48:02;;;;;;;31.83;14.23;;;;;;;7.32;100.00;101384.56;5008639;28;20412;-59
2024/02/17 07:50:29;;;;;;;36.55;16.00;;;;;;;7.35;100.00;101389.47;5008982;28;20060;-58
2024/02/17 07:52:57;;;;;;;34.78;15.40;;;;;;;7.35;100.00;101372.13;5008825;28;20052;-59
2024/02/17 07:55:25;;;;;;;40.53;17.02;;;;;;;7.39;100.00;101389.63;5014517;28;20061;-59
2024/02/17 07:57:52;;;;;;;36.80;17.15;;;;;;;7.40;100.00;101385.78;5008659;28;20045;-57
2024/02/17 08:00:20;;;;;;;46.58;19.67;;;;;;;7.42;100.00;101378.00;5009005;28;20065;-58
2024/02/17 08:02:47;;;;;;;43.67;18.80;;;;;;;7.44;100.00;101364.72;4995835;28;20050;-59
2024/02/17 08:05:14;;;;;;;53.00;20.08;;;;;;;7.46;100.00;101381.78;5008315;28;20496;-59
2024/02/17 08:07:45;;;;;;;49.88;19.13;;;;;;;7.49;100.00;101381.19;5007203;28;20041;-59
2024/02/17 08:10:12;;;;;;;47.60;18.50;;;;;;;7.52;100.00;101388.81;4991181;28;20053;-60
2024/02/17 08:12:40;;;;;;;47.28;18.67;;;;;;;7.56;100.00;101381.56;5009366;28;20046;-59
2024/02/17 08:15:08;;;;;;;46.65;19.95;;;;;;;7.59;100.00;101371.84;5008178;28;20061;-60
2024/02/17 08:17:35;;;;;;;57.63;20.98;;;;;;;7.62;100.00;101372.06;4990814;28;20050;-57
2024/02/17 08:20:03;;;;;;;41.78;19.17;;;;;;;7.63;100.00;101379.19;5008137;28;20061;-60
2024/02/17 08:22:32;;;;;;;41.15;17.05;;;;;;;7.67;100.00;101377.47;5008442;28;20065;-57
2024/02/17 08:25:03;;;;;;;41.97;17.42;;;;;;;7.70;100.00;101374.09;4994757;28;20049;-59
2024/02/17 08:27:35;;;;;;;38.13;17.15;;;;;;;7.72;100.00;101369.06;5007590;28;20049;-58
2024/02/17 08:30:03;;;;;;;31.15;13.05;;;;;;;7.75;100.00;101362.94;5007644;28;20746;-58
2024/02/17 08:32:32;;;;;;;29.23;11.30;;;;;;;7.78;100.00;101365.06;5007630;28;20064;-58
2024/02/17 08:35:00;;;;;;;24.85;8.38;;;;;;;7.83;100.00;101351.19;5008067;28;20053;-58
2024/02/17 08:37:28;;;;;;;14.23;4.95;;;;;;;7.89;100.00;101360.94;5008052;28;20050;-60
2024/02/17 08:39:56;;;;;;;9.82;4.47;;;;;;;7.94;100.00;101358.06;5007715;28;20054;-60
2024/02/17 08:42:23;;;;;;;8.85;3.40;;;;;;;7.99;100.00;101355.16;5007972;28;20064;-59
2024/02/17 08:44:53;;;;;;;9.90;2.53;;;;;;;8.06;100.00;101353.91;5007896;28;20050;-59
2024/02/17 08:47:22;;;;;;;8.57;2.50;;;;;;;8.11;100.00;101353.78;5007150;28;20053;-60
2024/02/17 08:49:50;;;;;;;5.85;1.48;;;;;;;8.18;100.00;101346.69;5007807;28;20053;-58
2024/02/17 08:52:18;;;;;;;10.82;2.15;;;;;;;8.25;100.00;101346.28;5007965;28;20053;-59
2024/02/17 08:54:46;;;;;;;6.32;1.73;;;;;;;8.32;100.00;101347.47;5008512;28;20041;-58
2024/02/17 08:57:13;;;;;;;4.63;1.70;;;;;;;8.38;100.00;101351.75;5007448;28;20063;-58
2024/02/17 08:59:41;;;;;;;4.72;1.35;;;;;;;8.44;100.00;101330.34;5008089;28;20050;-59
2024/02/17 09:02:08;;;;;;;7.00;1.77;;;;;;;8.49;100.00;101341.25;5007591;28;20069;-60
2024/02/17 09:04:36;;;;;;;10.90;1.52;;;;;;;8.54;100.00;101339.19;5006894;28;20046;-59
2024/02/17 09:07:03;;;;;;;9.82;1.95;;;;;;;8.60;100.00;101342.63;5007787;28;20053;-59
2024/02/17 09:09:31;;;;;;;14.20;2.30;;;;;;;8.67;100.00;101340.22;5006599;28;20415;-58
2024/02/17 09:11:58;;;;;;;5.05;2.05;;;;;;;8.72;100.00;101342.81;5007491;28;20419;-59
2024/02/17 09:14:25;;;;;;;9.00;2.33;;;;;;;8.79;100.00;101340.41;5007324;28;20049;-59
2024/02/17 09:16:53;;;;;;;6.75;1.88;;;;;;;8.87;100.00;101347.13;5007485;28;20046;-59
2024/02/17 09:19:20;;;;;;;16.17;3.85;;;;;;;8.95;100.00;101336.09;4977719;28;20423;-59
2024/02/17 09:21:47;;;;;;;8.30;1.58;;;;;;;9.06;100.00;101340.19;5007477;28;20403;-58
2024/02/17 09:24:19;;;;;;;2.83;1.15;;;;;;;9.17;100.00;101338.75;5007319;28;20412;-58
2024/02/17 09:26:46;;;;;;;10.35;1.73;;;;;;;9.27;100.00;101331.28;5005496;28;20049;-58
2024/02/17 09:29:14;;;;;;;4.78;1.38;;;;;;;9.36;100.00;101332.94;5007259;28;20042;-58
2024/02/17 09:31:41;;;;;;;6.43;1.55;;;;;;;9.43;100.00;101337.97;5006494;28;20735;-59
2024/02/17 09:34:08;;;;;;;9.35;1.63;;;;;;;9.47;100.00;101333.44;5007329;28;20049;-57
2024/02/17 09:36:36;;;;;;;5.07;1.25;;;;;;;9.50;100.00;101322.56;5006989;28;20053;-59
2024/02/17 09:39:04;;;;;;;7.57;1.30;;;;;;;9.54;100.00;101325.47;5007104;28;20058;-58
2024/02/17 09:41:31;;;;;;;6.10;2.30;;;;;;;9.55;100.00;101318.81;5006951;28;20045;-59
2024/02/17 09:43:59;;;;;;;5.40;1.50;;;;;;;9.56;100.00;101320.44;5007636;28;20054;-60
2024/02/17 09:46:30;;;;;;;10.30;1.73;;;;;;;9.57;100.00;101311.00;5006558;28;20042;-56
2024/02/17 09:48:58;;;;;;;5.43;1.45;;;;;;;9.59;100.00;101317.03;5006437;28;20083;-57
2024/02/17 09:51:26;;;;;;;17.23;1.83;;;;;;;9.60;100.00;101324.19;5007072;28;20053;-58
2024/02/17 09:53:55;;;;;;;11.77;2.28;;;;;;;9.60;100.00;101311.19;5005509;28;20153;-60
2024/02/17 09:56:24;;;;;;;9.60;2.60;;;;;;;9.63;100.00;101304.19;5006717;28;20507;-59
2024/02/17 09:58:53;;;;;;;4.05;1.38;;;;;;;9.62;100.00;101308.91;5005331;28;20057;-56
2024/02/17 10:01:20;;;;;;;2.40;0.60;;;;;;;9.63;100.00;101310.53;5006778;28;21056;-52
2024/02/17 10:03:51;;;;;;;3.25;1.15;;;;;;;9.65;100.00;101293.63;5006671;28;20050;-59
2024/02/17 10:06:18;;;;;;;8.13;1.40;;;;;;;9.65;100.00;101296.38;5007043;28;20054;-58
2024/02/17 10:08:49;;;;;;;5.35;1.60;;;;;;;9.63;100.00;101293.97;5006422;28;20407;-59
2024/02/17 10:11:17;;;;;;;6.95;1.10;;;;;;;9.63;100.00;101301.44;5006158;28;20049;-58
2024/02/17 10:13:57;;;;;;;3.70;1.15;;;;;;;9.61;100.00;101306.47;5006285;28;20049;-58
2024/02/17 10:16:27;;;;;;;2.65;1.30;;;;;;;9.60;100.00;101293.78;5006327;28;20056;-58
2024/02/17 10:18:57;;;;;;;6.63;2.20;;;;;;;9.58;100.00;101291.31;5006214;28;20512;-56
2024/02/17 10:21:25;;;;;;;4.15;1.98;;;;;;;9.56;100.00;101293.59;5006199;28;20072;-56
2024/02/17 10:23:53;;;;;;;4.05;2.38;;;;;;;9.56;100.00;101298.31;5006952;28;20048;-58
2024/02/17 10:26:20;;;;;;;4.78;2.13;;;;;;;9.55;100.00;101302.25;4988826;28;20520;-55
2024/02/17 10:28:58;;;;;;;6.00;2.00;;;;;;;9.54;100.00;101300.59;5006370;28;20050;-56
2024/02/17 10:31:28;;;;;;;6.18;2.08;;;;;;;9.53;100.00;101299.00;5006207;28;20069;-55
2024/02/17 10:33:57;;;;;;;8.30;3.13;;;;;;;9.53;100.00;101304.53;4988529;28;20077;-57
2024/02/17 10:36:26;;;;;;;6.32;1.90;;;;;;;9.53;100.00;101304.53;4988860;28;20042;-58
2024/02/17 10:38:54;;;;;;;4.68;2.20;;;;;;;9.53;100.00;101310.06;5006891;28;20056;-58
2024/02/17 10:41:22;;;;;;;3.33;1.67;;;;;;;9.55;100.00;101308.59;5010200;28;20048;-54
2024/02/17 10:43:52;;;;;;;7.50;1.95;;;;;;;9.60;100.00;101302.91;5010860;28;20567;-56
2024/02/17 10:46:26;;;;;;;6.07;1.63;;;;;;;9.62;100.00;101299.78;5009819;28;20563;-58
2024/02/17 10:49:01;;;;;;;3.97;1.58;;;;;;;9.64;100.00;101292.81;5011192;28;20056;-58
2024/02/17 10:51:29;;;;;;;3.75;1.67;;;;;;;9.68;100.00;101279.16;5010067;28;20046;-60
2024/02/17 10:54:02;;;;;;;4.30;2.42;;;;;;;9.72;100.00;101285.63;5010153;28;20058;-61
2024/02/17 10:56:31;;;;;;;2.95;1.58;;;;;;;9.76;100.00;101276.38;5010592;28;20543;-61
2024/02/17 10:59:03;;;;;;;9.25;2.38;;;;;;;9.77;100.00;101282.69;5010463;28;20058;-60
2024/02/17 11:01:35;;;;;;;9.65;1.90;;;;;;;9.78;100.00;101274.09;5010446;28;20530;-61
2024/02/17 11:04:03;;;;;;;6.53;2.17;;;;;;;9.79;100.00;101280.44;5010709;28;20045;-60
2024/02/17 11:06:32;;;;;;;4.22;2.05;;;;;;;9.78;100.00;101273.28;5010466;28;20049;-60
2024/02/17 11:09:00;;;;;;;9.27;2.17;;;;;;;9.78;100.00;101279.63;5009878;28;20620;-60
2024/02/17 11:11:31;;;;;;;13.02;3.35;;;;;;;9.77;100.00;101271.63;5010425;28;20515;-59
2024/02/17 11:13:59;;;;;;;14.63;4.38;;;;;;;9.76;100.00;101275.56;5009044;28;20621;-59
2024/02/17 11:16:34;;;;;;;16.55;5.22;;;;;;;9.74;100.00;101273.09;5008918;28;20057;-59
2024/02/17 11:19:08;;;;;;;19.70;4.22;;;;;;;9.72;100.00;101269.88;5007230;28;20057;-54
2024/02/17 11:21:36;;;;;;;9.35;3.88;;;;;;;9.73;100.00;101268.72;5009198;28;20054;-58